sensor_id;sensor_type;location;lat;lon;timestamp;temperature;humidity
7360;DHT22;3720;48.274;7.796;2023-04-03T00:00:08;6.80;99.90
7360;DHT22;3720;48.274;7.796;2023-04-03T00:02:41;6.80;99.90
7360;DHT22;3720;48.274;7.796;2023-04-03T00:05:13;6.80;99.90
7360;DHT22;3720;48.274;7.796;2023-04-03T00:07:45;6.80;99.90
7360;DHT22;3720;48.274;7.796;2023-04-03T00:10:19;6.80;99.90
7360;DHT22;3720;48.274;7.796;2023-04-03T00:12:51;6.80;99.90
7360;DHT22;3720;48.274;7.796;2023-04-03T00:15:23;6.80;99.90
7360;DHT22;3720;48.274;7.796;2023-04-03T00:17:55;6.80;99.90
7360;DHT22;3720;48.274;7.796;2023-04-03T00:20:27;6.80;99.90
7360;DHT22;3720;48.274;7.796;2023-04-03T00:23:00;6.80;99.90
7360;DHT22;3720;48.274;7.796;2023-04-03T00:25:34;6.80;99.90
7360;DHT22;3720;48.274;7.796;2023-04-03T00:28:06;6.70;99.90
7360;DHT22;3720;48.274;7.796;2023-04-03T00:30:38;6.80;99.90
7360;DHT22;3720;48.274;7.796;2023-04-03T00:33:11;6.70;99.90
7360;DHT22;3720;48.274;7.796;2023-04-03T00:35:44;6.70;99.90
7360;DHT22;3720;48.274;7.796;2023-04-03T00:38:16;6.70;99.90
7360;DHT22;3720;48.274;7.796;2023-04-03T00:40:50;6.70;99.90
7360;DHT22;3720;48.274;7.796;2023-04-03T00:43:23;6.60;99.90
7360;DHT22;3720;48.274;7.796;2023-04-03T00:45:57;6.70;99.90
7360;DHT22;3720;48.274;7.796;2023-04-03T00:48:32;6.60;99.90
7360;DHT22;3720;48.274;7.796;2023-04-03T00:51:07;6.60;99.90
7360;DHT22;3720;48.274;7.796;2023-04-03T00:53:46;6.60;99.90
7360;DHT22;3720;48.274;7.796;2023-04-03T00:56:19;6.60;99.90
7360;DHT22;3720;48.274;7.796;2023-04-03T00:58:54;6.60;99.90
7360;DHT22;3720;48.274;7.796;2023-04-03T01:01:29;6.50;99.90
7360;DHT22;3720;48.274;7.796;2023-04-03T01:04:02;6.50;99.90
7360;DHT22;3720;48.274;7.796;2023-04-03T01:06:36;6.50;99.90
7360;DHT22;3720;48.274;7.796;2023-04-03T01:09:08;6.50;99.90
7360;DHT22;3720;48.274;7.796;2023-04-03T01:11:42;6.60;99.90
7360;DHT22;3720;48.274;7.796;2023-04-03T01:14:13;6.50;99.90
7360;DHT22;3720;48.274;7.796;2023-04-03T01:16:52;6.50;99.90
7360;DHT22;3720;48.274;7.796;2023-04-03T01:19:25;6.50;99.90
7360;DHT22;3720;48.274;7.796;2023-04-03T01:22:09;6.50;99.90
7360;DHT22;3720;48.274;7.796;2023-04-03T01:24:47;6.40;99.90
7360;DHT22;3720;48.274;7.796;2023-04-03T01:27:21;6.40;99.90
7360;DHT22;3720;48.274;7.796;2023-04-03T01:29:53;6.40;99.90
7360;DHT22;3720;48.274;7.796;2023-04-03T01:32:26;6.40;99.90
7360;DHT22;3720;48.274;7.796;2023-04-03T01:34:58;6.40;99.90
7360;DHT22;3720;48.274;7.796;2023-04-03T01:37:30;6.20;99.90
7360;DHT22;3720;48.274;7.796;2023-04-03T01:40:02;6.20;99.90
7360;DHT22;3720;48.274;7.796;2023-04-03T01:42:34;6.20;99.90
7360;DHT22;3720;48.274;7.796;2023-04-03T01:45:07;6.20;99.90
7360;DHT22;3720;48.274;7.796;2023-04-03T01:47:41;6.20;99.90
7360;DHT22;3720;48.274;7.796;2023-04-03T01:50:13;6.20;99.90
7360;DHT22;3720;48.274;7.796;2023-04-03T01:52:45;6.20;99.90
7360;DHT22;3720;48.274;7.796;2023-04-03T01:55:17;6.20;99.90
7360;DHT22;3720;48.274;7.796;2023-04-03T01:57:48;6.10;99.90
7360;DHT22;3720;48.274;7.796;2023-04-03T02:00:21;6.20;99.90
7360;DHT22;3720;48.274;7.796;2023-04-03T02:02:54;6.20;99.90
7360;DHT22;3720;48.274;7.796;2023-04-03T02:05:27;6.20;99.90
7360;DHT22;3720;48.274;7.796;2023-04-03T02:07:59;6.20;99.90
7360;DHT22;3720;48.274;7.796;2023-04-03T02:10:31;6.10;99.90
7360;DHT22;3720;48.274;7.796;2023-04-03T02:13:03;6.10;99.90
7360;DHT22;3720;48.274;7.796;2023-04-03T02:15:37;6.10;99.90
7360;DHT22;3720;48.274;7.796;2023-04-03T02:18:11;6.10;99.90
7360;DHT22;3720;48.274;7.796;2023-04-03T02:20:44;6.00;99.90
7360;DHT22;3720;48.274;7.796;2023-04-03T02:23:15;6.00;99.90
7360;DHT22;3720;48.274;7.796;2023-04-03T02:25:47;6.00;99.90
7360;DHT22;3720;48.274;7.796;2023-04-03T02:28:20;6.00;99.90
7360;DHT22;3720;48.274;7.796;2023-04-03T02:30:52;6.00;99.90
7360;DHT22;3720;48.274;7.796;2023-04-03T02:33:26;6.00;99.90
7360;DHT22;3720;48.274;7.796;2023-04-03T02:35:57;6.00;99.90
7360;DHT22;3720;48.274;7.796;2023-04-03T02:38:29;5.90;99.90
7360;DHT22;3720;48.274;7.796;2023-04-03T02:41:01;6.00;99.90
7360;DHT22;3720;48.274;7.796;2023-04-03T02:43:34;5.90;99.90
7360;DHT22;3720;48.274;7.796;2023-04-03T02:46:06;6.00;99.90
7360;DHT22;3720;48.274;7.796;2023-04-03T02:48:40;6.00;99.90
7360;DHT22;3720;48.274;7.796;2023-04-03T02:51:12;6.00;99.90
7360;DHT22;3720;48.274;7.796;2023-04-03T02:53:44;5.90;99.90
7360;DHT22;3720;48.274;7.796;2023-04-03T02:56:16;5.90;99.90
7360;DHT22;3720;48.274;7.796;2023-04-03T02:58:48;5.80;99.90
7360;DHT22;3720;48.274;7.796;2023-04-03T03:01:20;5.80;99.90
7360;DHT22;3720;48.274;7.796;2023-04-03T03:03:54;5.90;99.90
7360;DHT22;3720;48.274;7.796;2023-04-03T03:06:26;5.90;99.90
7360;DHT22;3720;48.274;7.796;2023-04-03T03:08:58;6.00;99.90
7360;DHT22;3720;48.274;7.796;2023-04-03T03:11:30;6.00;99.90
7360;DHT22;3720;48.274;7.796;2023-04-03T03:14:02;6.00;99.90
7360;DHT22;3720;48.274;7.796;2023-04-03T03:16:33;6.00;99.90
7360;DHT22;3720;48.274;7.796;2023-04-03T03:19:07;6.00;99.90
7360;DHT22;3720;48.274;7.796;2023-04-03T03:21:39;6.00;99.90
7360;DHT22;3720;48.274;7.796;2023-04-03T03:24:11;6.00;99.90
7360;DHT22;3720;48.274;7.796;2023-04-03T03:26:43;6.00;99.90
7360;DHT22;3720;48.274;7.796;2023-04-03T03:29:15;5.90;99.90
7360;DHT22;3720;48.274;7.796;2023-04-03T03:31:47;6.00;99.90
7360;DHT22;3720;48.274;7.796;2023-04-03T03:34:21;6.00;99.90
7360;DHT22;3720;48.274;7.796;2023-04-03T03:36:53;6.00;99.90
7360;DHT22;3720;48.274;7.796;2023-04-03T03:39:25;6.00;99.90
7360;DHT22;3720;48.274;7.796;2023-04-03T03:41:57;6.00;99.90
7360;DHT22;3720;48.274;7.796;2023-04-03T03:44:29;6.00;99.90
7360;DHT22;3720;48.274;7.796;2023-04-03T03:47:01;6.00;99.90
7360;DHT22;3720;48.274;7.796;2023-04-03T03:49:34;6.00;99.90
7360;DHT22;3720;48.274;7.796;2023-04-03T03:52:06;5.90;99.90
7360;DHT22;3720;48.274;7.796;2023-04-03T03:54:40;6.00;99.90
7360;DHT22;3720;48.274;7.796;2023-04-03T03:57:12;6.00;99.90
7360;DHT22;3720;48.274;7.796;2023-04-03T03:59:45;6.00;99.90
7360;DHT22;3720;48.274;7.796;2023-04-03T04:02:17;6.00;99.90
7360;DHT22;3720;48.274;7.796;2023-04-03T04:04:51;6.00;99.90
7360;DHT22;3720;48.274;7.796;2023-04-03T04:07:23;6.00;99.90
7360;DHT22;3720;48.274;7.796;2023-04-03T04:09:55;5.90;99.90
7360;DHT22;3720;48.274;7.796;2023-04-03T04:12:27;5.90;99.90
7360;DHT22;3720;48.274;7.796;2023-04-03T04:14:58;5.90;99.90
7360;DHT22;3720;48.274;7.796;2023-04-03T04:17:30;5.90;99.90
7360;DHT22;3720;48.274;7.796;2023-04-03T04:20:04;6.00;99.90
7360;DHT22;3720;48.274;7.796;2023-04-03T04:22:36;5.90;99.90
7360;DHT22;3720;48.274;7.796;2023-04-03T04:25:09;5.90;99.90
7360;DHT22;3720;48.274;7.796;2023-04-03T04:27:41;5.90;99.90
7360;DHT22;3720;48.274;7.796;2023-04-03T04:30:14;6.00;99.90
7360;DHT22;3720;48.274;7.796;2023-04-03T04:32:47;6.00;99.90
7360;DHT22;3720;48.274;7.796;2023-04-03T04:35:20;6.00;99.90
7360;DHT22;3720;48.274;7.796;2023-04-03T04:37:52;5.90;99.90
7360;DHT22;3720;48.274;7.796;2023-04-03T04:40:24;5.90;99.90
7360;DHT22;3720;48.274;7.796;2023-04-03T04:42:56;5.90;99.90
7360;DHT22;3720;48.274;7.796;2023-04-03T04:45:27;6.00;99.90
7360;DHT22;3720;48.274;7.796;2023-04-03T04:47:59;5.90;99.90
7360;DHT22;3720;48.274;7.796;2023-04-03T04:50:33;5.90;99.90
7360;DHT22;3720;48.274;7.796;2023-04-03T04:53:04;5.90;99.90
7360;DHT22;3720;48.274;7.796;2023-04-03T04:55:37;5.90;99.90
7360;DHT22;3720;48.274;7.796;2023-04-03T04:58:08;5.90;99.90
7360;DHT22;3720;48.274;7.796;2023-04-03T05:00:41;5.90;99.90
7360;DHT22;3720;48.274;7.796;2023-04-03T05:03:13;6.00;99.90
7360;DHT22;3720;48.274;7.796;2023-04-03T05:05:47;5.90;99.90
7360;DHT22;3720;48.274;7.796;2023-04-03T05:08:20;5.90;99.90
7360;DHT22;3720;48.274;7.796;2023-04-03T05:10:52;5.90;99.90
7360;DHT22;3720;48.274;7.796;2023-04-03T05:13:24;5.90;99.90
7360;DHT22;3720;48.274;7.796;2023-04-03T05:15:56;5.90;99.90
7360;DHT22;3720;48.274;7.796;2023-04-03T05:18:28;5.80;99.90
7360;DHT22;3720;48.274;7.796;2023-04-03T05:21:01;5.80;99.90
7360;DHT22;3720;48.274;7.796;2023-04-03T05:23:33;5.70;99.90
7360;DHT22;3720;48.274;7.796;2023-04-03T05:26:05;5.80;99.90
7360;DHT22;3720;48.274;7.796;2023-04-03T05:28:37;5.80;99.90
7360;DHT22;3720;48.274;7.796;2023-04-03T05:31:09;5.80;99.90
7360;DHT22;3720;48.274;7.796;2023-04-03T05:33:41;5.80;99.90
7360;DHT22;3720;48.274;7.796;2023-04-03T05:36:14;5.90;99.90
7360;DHT22;3720;48.274;7.796;2023-04-03T05:38:46;5.90;99.90
7360;DHT22;3720;48.274;7.796;2023-04-03T05:41:19;6.00;99.90
7360;DHT22;3720;48.274;7.796;2023-04-03T05:43:52;5.90;99.90
7360;DHT22;3720;48.274;7.796;2023-04-03T05:46:24;5.90;99.90
7360;DHT22;3720;48.274;7.796;2023-04-03T05:48:57;6.00;99.90
7360;DHT22;3720;48.274;7.796;2023-04-03T05:51:32;6.00;99.90
7360;DHT22;3720;48.274;7.796;2023-04-03T05:54:09;6.10;99.90
7360;DHT22;3720;48.274;7.796;2023-04-03T05:56:43;6.10;99.90
7360;DHT22;3720;48.274;7.796;2023-04-03T05:59:15;6.20;99.90
7360;DHT22;3720;48.274;7.796;2023-04-03T06:01:48;6.20;99.90
7360;DHT22;3720;48.274;7.796;2023-04-03T06:04:20;6.20;99.90
7360;DHT22;3720;48.274;7.796;2023-04-03T06:06:54;6.30;99.90
7360;DHT22;3720;48.274;7.796;2023-04-03T06:09:28;6.30;99.90
7360;DHT22;3720;48.274;7.796;2023-04-03T06:12:00;6.40;99.90
7360;DHT22;3720;48.274;7.796;2023-04-03T06:14:33;6.40;99.90
7360;DHT22;3720;48.274;7.796;2023-04-03T06:17:04;6.50;99.90
7360;DHT22;3720;48.274;7.796;2023-04-03T06:19:36;6.60;99.90
7360;DHT22;3720;48.274;7.796;2023-04-03T06:22:10;6.70;99.90
7360;DHT22;3720;48.274;7.796;2023-04-03T06:24:43;6.70;99.90
7360;DHT22;3720;48.274;7.796;2023-04-03T06:27:16;6.70;99.90
7360;DHT22;3720;48.274;7.796;2023-04-03T06:29:47;6.80;99.90
7360;DHT22;3720;48.274;7.796;2023-04-03T06:32:19;6.80;99.90
7360;DHT22;3720;48.274;7.796;2023-04-03T06:34:51;6.90;99.90
7360;DHT22;3720;48.274;7.796;2023-04-03T06:37:25;6.90;99.90
7360;DHT22;3720;48.274;7.796;2023-04-03T06:39:59;6.90;99.90
7360;DHT22;3720;48.274;7.796;2023-04-03T06:42:32;7.00;99.90
7360;DHT22;3720;48.274;7.796;2023-04-03T06:45:05;7.00;99.90
7360;DHT22;3720;48.274;7.796;2023-04-03T06:47:38;7.00;99.90
7360;DHT22;3720;48.274;7.796;2023-04-03T06:50:11;7.00;99.90
7360;DHT22;3720;48.274;7.796;2023-04-03T06:52:46;7.10;99.90
7360;DHT22;3720;48.274;7.796;2023-04-03T06:55:18;7.20;99.90
7360;DHT22;3720;48.274;7.796;2023-04-03T06:57:50;7.30;99.90
7360;DHT22;3720;48.274;7.796;2023-04-03T07:00:22;7.30;99.90
7360;DHT22;3720;48.274;7.796;2023-04-03T07:02:55;7.40;99.90
7360;DHT22;3720;48.274;7.796;2023-04-03T07:05:28;7.50;99.90
7360;DHT22;3720;48.274;7.796;2023-04-03T07:08:01;7.70;99.90
7360;DHT22;3720;48.274;7.796;2023-04-03T07:10:33;7.70;99.90
7360;DHT22;3720;48.274;7.796;2023-04-03T07:13:05;7.70;99.90
7360;DHT22;3720;48.274;7.796;2023-04-03T07:15:37;7.80;99.90
7360;DHT22;3720;48.274;7.796;2023-04-03T07:18:09;7.90;99.90
7360;DHT22;3720;48.274;7.796;2023-04-03T07:20:41;7.90;99.90
7360;DHT22;3720;48.274;7.796;2023-04-03T07:23:14;8.10;99.90
7360;DHT22;3720;48.274;7.796;2023-04-03T07:25:48;8.10;99.90
7360;DHT22;3720;48.274;7.796;2023-04-03T07:28:21;8.10;99.90
7360;DHT22;3720;48.274;7.796;2023-04-03T07:31:02;8.10;99.90
7360;DHT22;3720;48.274;7.796;2023-04-03T07:33:34;8.20;99.90
7360;DHT22;3720;48.274;7.796;2023-04-03T07:36:08;8.20;99.90
7360;DHT22;3720;48.274;7.796;2023-04-03T07:38:41;8.20;99.90
7360;DHT22;3720;48.274;7.796;2023-04-03T07:41:14;8.20;99.90
7360;DHT22;3720;48.274;7.796;2023-04-03T07:43:48;8.20;99.90
7360;DHT22;3720;48.274;7.796;2023-04-03T07:46:21;8.30;99.90
7360;DHT22;3720;48.274;7.796;2023-04-03T07:48:53;8.40;99.90
7360;DHT22;3720;48.274;7.796;2023-04-03T07:51:24;8.40;99.90
7360;DHT22;3720;48.274;7.796;2023-04-03T07:53:58;8.30;99.90
7360;DHT22;3720;48.274;7.796;2023-04-03T07:56:30;8.20;99.90
7360;DHT22;3720;48.274;7.796;2023-04-03T07:59:03;8.10;99.90
7360;DHT22;3720;48.274;7.796;2023-04-03T08:01:35;8.00;99.90
7360;DHT22;3720;48.274;7.796;2023-04-03T08:04:07;8.00;99.90
7360;DHT22;3720;48.274;7.796;2023-04-03T08:06:39;7.90;99.90
7360;DHT22;3720;48.274;7.796;2023-04-03T08:09:13;8.00;99.90
7360;DHT22;3720;48.274;7.796;2023-04-03T08:11:45;8.10;99.90
7360;DHT22;3720;48.274;7.796;2023-04-03T08:14:17;8.10;99.90
7360;DHT22;3720;48.274;7.796;2023-04-03T08:16:49;8.20;99.90
7360;DHT22;3720;48.274;7.796;2023-04-03T08:19:21;8.30;99.90
7360;DHT22;3720;48.274;7.796;2023-04-03T08:21:54;8.30;99.90
7360;DHT22;3720;48.274;7.796;2023-04-03T08:24:28;8.40;99.90
7360;DHT22;3720;48.274;7.796;2023-04-03T08:27:01;8.50;99.90
7360;DHT22;3720;48.274;7.796;2023-04-03T08:29:34;8.60;99.90
7360;DHT22;3720;48.274;7.796;2023-04-03T08:32:08;8.70;99.90
7360;DHT22;3720;48.274;7.796;2023-04-03T08:34:40;8.80;99.90
7360;DHT22;3720;48.274;7.796;2023-04-03T08:37:12;8.90;99.90
7360;DHT22;3720;48.274;7.796;2023-04-03T08:39:45;8.80;99.90
7360;DHT22;3720;48.274;7.796;2023-04-03T08:42:26;8.70;99.90
7360;DHT22;3720;48.274;7.796;2023-04-03T08:45:07;8.70;99.90
7360;DHT22;3720;48.274;7.796;2023-04-03T08:47:44;8.80;99.90
7360;DHT22;3720;48.274;7.796;2023-04-03T08:50:19;8.90;99.90
7360;DHT22;3720;48.274;7.796;2023-04-03T08:52:55;9.00;99.90
7360;DHT22;3720;48.274;7.796;2023-04-03T08:55:31;9.20;99.90
7360;DHT22;3720;48.274;7.796;2023-04-03T08:58:06;9.20;99.90
7360;DHT22;3720;48.274;7.796;2023-04-03T09:00:44;9.20;99.90
7360;DHT22;3720;48.274;7.796;2023-04-03T09:03:19;9.40;99.90
7360;DHT22;3720;48.274;7.796;2023-04-03T09:05:55;9.60;99.90
7360;DHT22;3720;48.274;7.796;2023-04-03T09:08:30;9.90;99.90
7360;DHT22;3720;48.274;7.796;2023-04-03T09:11:14;10.00;99.90
7360;DHT22;3720;48.274;7.796;2023-04-03T09:13:51;10.00;99.90
7360;DHT22;3720;48.274;7.796;2023-04-03T09:16:32;9.70;99.90
7360;DHT22;3720;48.274;7.796;2023-04-03T09:19:10;9.50;99.90
7360;DHT22;3720;48.274;7.796;2023-04-03T09:21:45;9.40;99.90
7360;DHT22;3720;48.274;7.796;2023-04-03T09:24:17;9.30;99.90
7360;DHT22;3720;48.274;7.796;2023-04-03T09:26:54;9.20;99.90
7360;DHT22;3720;48.274;7.796;2023-04-03T09:29:30;9.00;99.90
7360;DHT22;3720;48.274;7.796;2023-04-03T09:32:12;8.90;99.90
7360;DHT22;3720;48.274;7.796;2023-04-03T09:34:50;8.80;99.90
7360;DHT22;3720;48.274;7.796;2023-04-03T09:37:36;8.80;99.90
7360;DHT22;3720;48.274;7.796;2023-04-03T09:40:33;8.70;99.90
7360;DHT22;3720;48.274;7.796;2023-04-03T09:43:25;8.60;99.90
7360;DHT22;3720;48.274;7.796;2023-04-03T09:46:17;8.80;99.90
7360;DHT22;3720;48.274;7.796;2023-04-03T09:48:55;9.20;99.90
7360;DHT22;3720;48.274;7.796;2023-04-03T09:51:29;9.50;99.90
7360;DHT22;3720;48.274;7.796;2023-04-03T09:54:32;9.50;99.90
7360;DHT22;3720;48.274;7.796;2023-04-03T09:57:10;9.60;99.90
7360;DHT22;3720;48.274;7.796;2023-04-03T09:59:47;9.70;99.90
7360;DHT22;3720;48.274;7.796;2023-04-03T10:02:28;9.70;99.90
7360;DHT22;3720;48.274;7.796;2023-04-03T10:05:03;9.80;99.90
7360;DHT22;3720;48.274;7.796;2023-04-03T10:07:38;9.90;99.90
7360;DHT22;3720;48.274;7.796;2023-04-03T10:10:18;9.90;99.90
7360;DHT22;3720;48.274;7.796;2023-04-03T10:13:04;9.90;99.90
7360;DHT22;3720;48.274;7.796;2023-04-03T10:15:41;9.90;99.90
7360;DHT22;3720;48.274;7.796;2023-04-03T10:18:27;9.80;99.90
7360;DHT22;3720;48.274;7.796;2023-04-03T10:21:05;9.80;99.90
7360;DHT22;3720;48.274;7.796;2023-04-03T10:23:42;9.80;99.90
7360;DHT22;3720;48.274;7.796;2023-04-03T10:26:21;9.80;99.90
7360;DHT22;3720;48.274;7.796;2023-04-03T10:28:58;9.90;99.90
7360;DHT22;3720;48.274;7.796;2023-04-03T10:31:39;10.10;99.90
7360;DHT22;3720;48.274;7.796;2023-04-03T10:34:21;10.10;99.90
7360;DHT22;3720;48.274;7.796;2023-04-03T10:37:01;10.30;99.90
7360;DHT22;3720;48.274;7.796;2023-04-03T10:39:39;10.80;99.90
7360;DHT22;3720;48.274;7.796;2023-04-03T10:42:16;11.30;99.90
7360;DHT22;3720;48.274;7.796;2023-04-03T10:45:05;11.70;99.90
7360;DHT22;3720;48.274;7.796;2023-04-03T10:47:46;12.30;99.90
7360;DHT22;3720;48.274;7.796;2023-04-03T10:50:38;12.30;99.90
7360;DHT22;3720;48.274;7.796;2023-04-03T10:53:18;12.30;99.90
7360;DHT22;3720;48.274;7.796;2023-04-03T10:55:57;12.20;99.90
7360;DHT22;3720;48.274;7.796;2023-04-03T10:58:34;12.50;99.90
7360;DHT22;3720;48.274;7.796;2023-04-03T11:01:09;12.40;99.90
7360;DHT22;3720;48.274;7.796;2023-04-03T11:03:46;12.60;99.90
7360;DHT22;3720;48.274;7.796;2023-04-03T11:06:22;13.00;99.90
7360;DHT22;3720;48.274;7.796;2023-04-03T11:08:57;13.40;99.90
7360;DHT22;3720;48.274;7.796;2023-04-03T11:11:35;13.50;99.90
7360;DHT22;3720;48.274;7.796;2023-04-03T11:14:13;13.50;99.90
7360;DHT22;3720;48.274;7.796;2023-04-03T11:16:48;13.30;99.90
7360;DHT22;3720;48.274;7.796;2023-04-03T11:19:31;13.00;99.90
7360;DHT22;3720;48.274;7.796;2023-04-03T11:22:11;12.80;99.90
7360;DHT22;3720;48.274;7.796;2023-04-03T11:24:54;12.60;99.90
7360;DHT22;3720;48.274;7.796;2023-04-03T11:27:40;12.60;99.90
7360;DHT22;3720;48.274;7.796;2023-04-03T11:30:18;12.80;99.90
7360;DHT22;3720;48.274;7.796;2023-04-03T11:36:00;13.40;99.90
7360;DHT22;3720;48.274;7.796;2023-04-03T11:38:36;13.40;99.90
7360;DHT22;3720;48.274;7.796;2023-04-03T11:41:25;13.30;99.90
7360;DHT22;3720;48.274;7.796;2023-04-03T11:43:59;13.00;99.90
7360;DHT22;3720;48.274;7.796;2023-04-03T11:46:50;12.80;99.90
7360;DHT22;3720;48.274;7.796;2023-04-03T11:49:51;12.60;99.90
7360;DHT22;3720;48.274;7.796;2023-04-03T11:52:59;12.50;99.90
7360;DHT22;3720;48.274;7.796;2023-04-03T11:58:36;12.50;99.90
7360;DHT22;3720;48.274;7.796;2023-04-03T12:01:10;12.40;99.90
7360;DHT22;3720;48.274;7.796;2023-04-03T12:04:03;12.30;99.90
7360;DHT22;3720;48.274;7.796;2023-04-03T12:07:01;12.40;99.90
7360;DHT22;3720;48.274;7.796;2023-04-03T12:09:58;12.30;99.90
7360;DHT22;3720;48.274;7.796;2023-04-03T12:12:34;12.40;99.90
7360;DHT22;3720;48.274;7.796;2023-04-03T12:15:23;12.40;99.90
7360;DHT22;3720;48.274;7.796;2023-04-03T12:17:55;12.30;99.90
7360;DHT22;3720;48.274;7.796;2023-04-03T12:21:00;12.40;99.90
7360;DHT22;3720;48.274;7.796;2023-04-03T12:23:34;12.30;99.90
7360;DHT22;3720;48.274;7.796;2023-04-03T12:26:23;12.40;99.90
7360;DHT22;3720;48.274;7.796;2023-04-03T12:28:57;12.30;99.90
7360;DHT22;3720;48.274;7.796;2023-04-03T12:31:40;12.40;99.90
7360;DHT22;3720;48.274;7.796;2023-04-03T12:34:33;12.40;99.90
7360;DHT22;3720;48.274;7.796;2023-04-03T12:37:23;12.40;99.90
7360;DHT22;3720;48.274;7.796;2023-04-03T12:40:07;12.30;99.90
7360;DHT22;3720;48.274;7.796;2023-04-03T12:43:01;12.20;99.90
7360;DHT22;3720;48.274;7.796;2023-04-03T12:45:41;12.20;99.90
7360;DHT22;3720;48.274;7.796;2023-04-03T12:48:17;12.10;99.90
7360;DHT22;3720;48.274;7.796;2023-04-03T12:50:50;12.00;99.90
7360;DHT22;3720;48.274;7.796;2023-04-03T12:53:25;11.90;99.90
7360;DHT22;3720;48.274;7.796;2023-04-03T12:56:19;11.80;99.90
7360;DHT22;3720;48.274;7.796;2023-04-03T12:58:55;11.80;99.90
7360;DHT22;3720;48.274;7.796;2023-04-03T13:01:28;11.70;99.90
7360;DHT22;3720;48.274;7.796;2023-04-03T13:04:00;11.60;99.90
7360;DHT22;3720;48.274;7.796;2023-04-03T13:06:37;11.60;99.90
7360;DHT22;3720;48.274;7.796;2023-04-03T13:09:20;11.50;99.90
7360;DHT22;3720;48.274;7.796;2023-04-03T13:11:59;11.50;99.90
7360;DHT22;3720;48.274;7.796;2023-04-03T13:14:33;11.50;99.90
7360;DHT22;3720;48.274;7.796;2023-04-03T13:17:11;11.70;99.90
7360;DHT22;3720;48.274;7.796;2023-04-03T13:19:45;11.70;99.90
7360;DHT22;3720;48.274;7.796;2023-04-03T13:22:26;11.80;99.90
7360;DHT22;3720;48.274;7.796;2023-04-03T13:25:03;11.80;99.90
7360;DHT22;3720;48.274;7.796;2023-04-03T13:27:38;11.80;99.90
7360;DHT22;3720;48.274;7.796;2023-04-03T13:30:23;11.90;99.90
7360;DHT22;3720;48.274;7.796;2023-04-03T13:32:58;11.90;99.90
7360;DHT22;3720;48.274;7.796;2023-04-03T13:35:37;11.80;99.90
7360;DHT22;3720;48.274;7.796;2023-04-03T13:38:23;11.70;99.90
7360;DHT22;3720;48.274;7.796;2023-04-03T13:40:57;11.50;99.90
7360;DHT22;3720;48.274;7.796;2023-04-03T13:43:32;11.50;99.90
7360;DHT22;3720;48.274;7.796;2023-04-03T13:46:25;11.50;99.90
7360;DHT22;3720;48.274;7.796;2023-04-03T13:49:20;11.50;99.90
7360;DHT22;3720;48.274;7.796;2023-04-03T13:51:53;11.70;99.90
7360;DHT22;3720;48.274;7.796;2023-04-03T13:54:30;11.90;99.90
7360;DHT22;3720;48.274;7.796;2023-04-03T13:57:11;12.10;99.90
7360;DHT22;3720;48.274;7.796;2023-04-03T13:59:44;12.20;99.90
7360;DHT22;3720;48.274;7.796;2023-04-03T14:02:20;12.20;99.90
7360;DHT22;3720;48.274;7.796;2023-04-03T14:04:56;12.20;99.90
7360;DHT22;3720;48.274;7.796;2023-04-03T14:07:30;12.20;99.90
7360;DHT22;3720;48.274;7.796;2023-04-03T14:10:03;12.10;99.90
7360;DHT22;3720;48.274;7.796;2023-04-03T14:12:37;12.00;99.90
7360;DHT22;3720;48.274;7.796;2023-04-03T14:15:17;11.90;99.90
7360;DHT22;3720;48.274;7.796;2023-04-03T14:17:50;11.80;99.90
7360;DHT22;3720;48.274;7.796;2023-04-03T14:20:25;11.80;99.90
7360;DHT22;3720;48.274;7.796;2023-04-03T14:22:58;11.60;99.90
7360;DHT22;3720;48.274;7.796;2023-04-03T14:25:30;11.60;99.90
7360;DHT22;3720;48.274;7.796;2023-04-03T14:28:14;11.50;99.90
7360;DHT22;3720;48.274;7.796;2023-04-03T14:30:48;11.50;99.90
7360;DHT22;3720;48.274;7.796;2023-04-03T14:33:22;11.50;99.90
7360;DHT22;3720;48.274;7.796;2023-04-03T14:35:55;11.40;99.90
7360;DHT22;3720;48.274;7.796;2023-04-03T14:38:29;11.40;99.90
7360;DHT22;3720;48.274;7.796;2023-04-03T14:41:01;11.30;99.90
7360;DHT22;3720;48.274;7.796;2023-04-03T14:43:33;11.10;99.90
7360;DHT22;3720;48.274;7.796;2023-04-03T14:46:05;11.00;99.90
7360;DHT22;3720;48.274;7.796;2023-04-03T14:48:41;10.90;99.90
7360;DHT22;3720;48.274;7.796;2023-04-03T14:51:15;10.90;99.90
7360;DHT22;3720;48.274;7.796;2023-04-03T14:53:47;10.90;99.90
7360;DHT22;3720;48.274;7.796;2023-04-03T14:56:23;11.00;99.90
7360;DHT22;3720;48.274;7.796;2023-04-03T14:58:58;10.90;99.90
7360;DHT22;3720;48.274;7.796;2023-04-03T15:01:30;10.90;99.90
7360;DHT22;3720;48.274;7.796;2023-04-03T15:04:08;10.90;99.90
7360;DHT22;3720;48.274;7.796;2023-04-03T15:06:43;10.90;99.90
7360;DHT22;3720;48.274;7.796;2023-04-03T15:09:20;10.80;99.90
7360;DHT22;3720;48.274;7.796;2023-04-03T15:11:54;10.80;99.90
7360;DHT22;3720;48.274;7.796;2023-04-03T15:14:26;10.80;99.90
7360;DHT22;3720;48.274;7.796;2023-04-03T15:16:59;10.70;99.90
7360;DHT22;3720;48.274;7.796;2023-04-03T15:19:36;10.70;99.90
7360;DHT22;3720;48.274;7.796;2023-04-03T15:22:13;10.70;99.90
7360;DHT22;3720;48.274;7.796;2023-04-03T15:24:45;10.60;99.90
7360;DHT22;3720;48.274;7.796;2023-04-03T15:27:18;10.50;99.90
7360;DHT22;3720;48.274;7.796;2023-04-03T15:29:50;10.40;99.90
7360;DHT22;3720;48.274;7.796;2023-04-03T15:32:22;10.40;99.90
7360;DHT22;3720;48.274;7.796;2023-04-03T15:34:53;10.40;99.90
7360;DHT22;3720;48.274;7.796;2023-04-03T15:37:27;10.40;99.90
7360;DHT22;3720;48.274;7.796;2023-04-03T15:39:59;10.30;99.90
7360;DHT22;3720;48.274;7.796;2023-04-03T15:42:31;10.30;99.90
7360;DHT22;3720;48.274;7.796;2023-04-03T15:45:04;10.20;99.90
7360;DHT22;3720;48.274;7.796;2023-04-03T15:47:36;10.20;99.90
7360;DHT22;3720;48.274;7.796;2023-04-03T15:50:09;10.10;99.90
7360;DHT22;3720;48.274;7.796;2023-04-03T15:52:43;10.10;99.90
7360;DHT22;3720;48.274;7.796;2023-04-03T15:55:15;10.00;99.90
7360;DHT22;3720;48.274;7.796;2023-04-03T15:57:47;10.00;99.90
7360;DHT22;3720;48.274;7.796;2023-04-03T16:00:20;9.90;99.90
7360;DHT22;3720;48.274;7.796;2023-04-03T16:02:54;9.90;99.90
7360;DHT22;3720;48.274;7.796;2023-04-03T16:05:27;9.90;99.90
7360;DHT22;3720;48.274;7.796;2023-04-03T16:08:01;9.80;99.90
7360;DHT22;3720;48.274;7.796;2023-04-03T16:10:34;9.90;99.90
7360;DHT22;3720;48.274;7.796;2023-04-03T16:13:06;9.90;99.90
7360;DHT22;3720;48.274;7.796;2023-04-03T16:15:38;9.80;99.90
7360;DHT22;3720;48.274;7.796;2023-04-03T16:18:10;9.80;99.90
7360;DHT22;3720;48.274;7.796;2023-04-03T16:20:44;9.80;99.90
7360;DHT22;3720;48.274;7.796;2023-04-03T16:23:18;9.80;99.90
7360;DHT22;3720;48.274;7.796;2023-04-03T16:25:50;9.80;99.90
7360;DHT22;3720;48.274;7.796;2023-04-03T16:28:22;9.80;99.90
7360;DHT22;3720;48.274;7.796;2023-04-03T16:30:54;9.70;99.90
7360;DHT22;3720;48.274;7.796;2023-04-03T16:33:26;9.60;99.90
7360;DHT22;3720;48.274;7.796;2023-04-03T16:35:58;9.60;99.90
7360;DHT22;3720;48.274;7.796;2023-04-03T16:38:32;9.50;99.90
7360;DHT22;3720;48.274;7.796;2023-04-03T16:41:04;9.50;99.90
7360;DHT22;3720;48.274;7.796;2023-04-03T16:43:36;9.50;99.90
7360;DHT22;3720;48.274;7.796;2023-04-03T16:46:08;9.50;99.90
7360;DHT22;3720;48.274;7.796;2023-04-03T16:48:40;9.50;99.90
7360;DHT22;3720;48.274;7.796;2023-04-03T16:51:13;9.50;99.90
7360;DHT22;3720;48.274;7.796;2023-04-03T16:53:46;9.50;99.90
7360;DHT22;3720;48.274;7.796;2023-04-03T16:56:18;9.50;99.90
7360;DHT22;3720;48.274;7.796;2023-04-03T16:58:50;9.40;99.90
7360;DHT22;3720;48.274;7.796;2023-04-03T17:01:23;9.40;99.90
7360;DHT22;3720;48.274;7.796;2023-04-03T17:03:54;9.30;99.90
7360;DHT22;3720;48.274;7.796;2023-04-03T17:06:26;9.30;99.90
7360;DHT22;3720;48.274;7.796;2023-04-03T17:09:00;9.30;99.90